createdAt,value
2019-02-09T00:00:27.224Z,74.66
2019-02-09T00:02:53.794Z,75.34
2019-02-09T00:05:20.366Z,74.93
2019-02-09T00:07:46.935Z,74.88
2019-02-09T00:10:14.794Z,75.04
2019-02-09T00:12:41.386Z,75.43
2019-02-09T00:15:09.915Z,74.96
2019-02-09T00:17:36.490Z,74.73
2019-02-09T00:20:07.684Z,74.82
2019-02-09T00:22:34.308Z,74.27
2019-02-09T00:25:00.865Z,74.34
2019-02-09T00:27:27.693Z,73.93
2019-02-09T00:29:54.379Z,73.88
2019-02-09T00:32:21.011Z,73.86
2019-02-09T00:34:47.604Z,73.53
2019-02-09T00:37:14.233Z,73.67
2019-02-09T00:39:41.038Z,73.97
2019-02-09T00:42:07.609Z,73.84
2019-02-09T00:44:34.204Z,74.01
2019-02-09T00:47:00.843Z,74.68
2019-02-09T00:49:27.399Z,73.67
2019-02-09T00:51:53.947Z,73.90
2019-02-09T00:54:20.559Z,74.30
2019-02-09T00:56:47.138Z,74.21
2019-02-09T00:59:13.715Z,73.52
2019-02-09T01:01:40.452Z,74.21
2019-02-09T01:04:07.003Z,74.08
2019-02-09T01:06:33.583Z,74.15
2019-02-09T01:09:00.231Z,74.00
2019-02-09T01:11:26.922Z,73.71
2019-02-09T01:13:53.630Z,73.78
2019-02-09T01:16:20.226Z,73.60
2019-02-09T01:18:46.818Z,73.67
2019-02-09T01:21:13.545Z,73.95
2019-02-09T01:23:40.133Z,73.36
2019-02-09T01:27:03.341Z,73.24
2019-02-09T01:29:29.996Z,74.04
2019-02-09T01:31:56.569Z,73.18
2019-02-09T01:34:25.913Z,73.02
2019-02-09T01:36:52.546Z,74.53
2019-02-09T01:39:19.695Z,74.78
2019-02-09T01:41:46.503Z,74.18
2019-02-09T01:44:13.103Z,74.18
2019-02-09T01:46:39.663Z,73.98
2019-02-09T01:49:06.244Z,74.24
2019-02-09T01:51:32.889Z,73.68
2019-02-09T01:53:59.460Z,74.10
2019-02-09T01:56:26.088Z,73.52
2019-02-09T01:58:52.858Z,74.20
2019-02-09T02:01:19.493Z,74.11
2019-02-09T02:03:46.317Z,73.91
2019-02-09T02:06:12.955Z,73.78
2019-02-09T02:08:39.537Z,73.75
2019-02-09T02:11:06.197Z,73.60
2019-02-09T02:13:32.846Z,74.88
2019-02-09T02:15:59.440Z,74.49
2019-02-09T02:18:26.045Z,75.20
2019-02-09T02:20:52.676Z,74.19
2019-02-09T02:23:19.235Z,74.04
2019-02-09T02:25:46.073Z,74.59
2019-02-09T02:28:12.687Z,74.22
2019-02-09T02:30:39.299Z,74.85
2019-02-09T02:33:06.853Z,74.95
2019-02-09T02:35:34.393Z,75.09
2019-02-09T02:38:00.924Z,74.78
2019-02-09T02:40:27.641Z,74.88
2019-02-09T02:42:54.241Z,74.70
2019-02-09T02:45:23.373Z,74.75
2019-02-09T02:47:50.132Z,74.31
2019-02-09T02:50:20.278Z,75.05
2019-02-09T02:52:46.940Z,74.71
2019-02-09T02:55:17.628Z,74.91
2019-02-09T02:57:44.538Z,75.06
2019-02-09T03:00:16.419Z,74.44
2019-02-09T03:02:43.068Z,74.72
2019-02-09T03:05:14.014Z,74.31
2019-02-09T03:07:40.545Z,74.55
2019-02-09T03:10:09.667Z,74.94
2019-02-09T03:12:36.266Z,74.75
2019-02-09T03:15:08.604Z,74.02
2019-02-09T03:17:35.226Z,73.82
2019-02-09T03:20:05.291Z,73.87
2019-02-09T03:22:31.940Z,73.54
2019-02-09T03:24:58.537Z,74.15
2019-02-09T03:27:25.155Z,74.07
2019-02-09T03:29:51.770Z,74.08
2019-02-09T03:32:18.337Z,75.05
2019-02-09T03:34:44.992Z,74.73
2019-02-09T03:37:11.643Z,75.38
2019-02-09T03:39:38.308Z,75.11
2019-02-09T03:42:05.026Z,74.45
2019-02-09T03:44:32.824Z,74.87
2019-02-09T03:46:59.411Z,75.15
2019-02-09T03:49:26.025Z,74.58
2019-02-09T03:51:52.587Z,74.21
2019-02-09T03:54:19.202Z,74.13
2019-02-09T03:56:46.026Z,74.29
2019-02-09T03:59:12.674Z,74.11
2019-02-09T04:01:39.302Z,74.82
2019-02-09T04:04:06.023Z,74.34
2019-02-09T04:06:32.649Z,74.15
2019-02-09T04:09:00.812Z,73.91
2019-02-09T04:11:27.480Z,74.73
2019-02-09T04:13:54.094Z,74.33
2019-02-09T04:16:20.687Z,74.73
2019-02-09T04:18:47.286Z,74.25
2019-02-09T04:21:13.825Z,74.30
2019-02-09T04:23:40.494Z,74.20
2019-02-09T04:26:07.072Z,74.24
2019-02-09T04:28:33.719Z,73.88
2019-02-09T04:31:56.631Z,74.07
2019-02-09T04:34:23.237Z,73.67
2019-02-09T04:36:49.855Z,73.74
2019-02-09T04:39:16.465Z,74.36
2019-02-09T04:41:43.142Z,74.16
2019-02-09T04:44:09.693Z,73.59
2019-02-09T04:46:36.309Z,73.56
2019-02-09T04:49:02.885Z,74.03
2019-02-09T04:51:29.457Z,72.92
2019-02-09T04:53:56.106Z,72.98
2019-02-09T04:56:22.691Z,73.09
2019-02-09T04:58:49.257Z,73.22
2019-02-09T05:01:17.247Z,72.73
2019-02-09T05:03:43.856Z,73.77
2019-02-09T05:06:10.523Z,73.47
2019-02-09T05:08:37.175Z,73.94
2019-02-09T05:11:03.762Z,73.41
2019-02-09T05:13:30.322Z,73.97
2019-02-09T05:15:56.965Z,73.96
2019-02-09T05:18:23.551Z,73.53
2019-02-09T05:20:50.097Z,73.39
2019-02-09T05:23:16.703Z,73.16
2019-02-09T05:25:44.827Z,73.10
2019-02-09T05:28:11.513Z,73.11
2019-02-09T05:30:38.128Z,73.05
2019-02-09T05:33:04.668Z,73.69
2019-02-09T05:35:31.309Z,73.19
2019-02-09T05:37:57.888Z,73.15
2019-02-09T05:40:25.844Z,72.63
2019-02-09T05:42:52.471Z,72.64
2019-02-09T05:45:23.416Z,72.22
2019-02-09T05:47:50.031Z,72.10
2019-02-09T05:50:18.363Z,72.78
2019-02-09T05:52:45.619Z,73.07
2019-02-09T05:55:12.498Z,72.41
2019-02-09T05:57:39.054Z,72.35
2019-02-09T06:00:11.448Z,72.48
2019-02-09T06:02:38.155Z,72.27
2019-02-09T06:05:08.549Z,72.48
2019-02-09T06:07:35.179Z,72.49
2019-02-09T06:10:06.987Z,72.02
2019-02-09T06:12:33.631Z,72.15
2019-02-09T06:15:00.330Z,71.81
2019-02-09T06:17:28.104Z,71.99
2019-02-09T06:19:54.730Z,72.62
2019-02-09T06:22:21.364Z,72.39
2019-02-09T06:24:47.933Z,72.35
2019-02-09T06:27:14.565Z,72.38
2019-02-09T06:29:41.138Z,72.61
2019-02-09T06:32:07.743Z,72.79
2019-02-09T06:34:34.358Z,72.58
2019-02-09T06:37:01.304Z,72.57
2019-02-09T06:39:27.971Z,72.52
2019-02-09T06:41:54.541Z,72.08
2019-02-09T06:44:21.116Z,71.88
2019-02-09T06:46:47.725Z,71.36
2019-02-09T06:49:14.295Z,72.04
2019-02-09T06:51:40.823Z,71.82
2019-02-09T06:54:07.494Z,71.40
2019-02-09T06:56:35.254Z,71.08
2019-02-09T06:59:01.825Z,71.29
2019-02-09T07:01:28.456Z,71.07
2019-02-09T07:03:55.059Z,71.94
2019-02-09T07:06:21.633Z,71.06
2019-02-09T07:08:48.233Z,70.51
2019-02-09T07:11:14.851Z,70.31
2019-02-09T07:13:41.502Z,70.20
2019-02-09T07:16:08.090Z,70.03
2019-02-09T07:18:34.706Z,69.88
2019-02-09T07:21:01.267Z,68.98
2019-02-09T07:23:27.940Z,69.20
2019-02-09T07:25:54.532Z,69.28
2019-02-09T07:28:21.176Z,69.42
2019-02-09T07:30:47.726Z,68.96
2019-02-09T07:33:14.305Z,69.08
2019-02-09T07:35:40.919Z,68.56
2019-02-09T07:38:07.452Z,68.22
2019-02-09T07:40:35.032Z,68.33
2019-02-09T07:43:01.642Z,68.19
2019-02-09T07:45:30.784Z,68.83
2019-02-09T07:47:57.414Z,68.10
2019-02-09T07:50:26.258Z,68.49
2019-02-09T07:52:52.894Z,68.23
2019-02-09T07:55:19.747Z,67.44
2019-02-09T07:57:46.432Z,67.30
2019-02-09T08:00:17.522Z,67.61
2019-02-09T08:02:44.193Z,67.18
2019-02-09T08:05:12.066Z,67.52
2019-02-09T08:07:38.643Z,66.98
2019-02-09T08:11:08.841Z,66.91
2019-02-09T08:13:30.090Z,66.79
2019-02-09T08:15:56.792Z,66.39
2019-02-09T08:18:23.405Z,66.31
2019-02-09T08:20:49.978Z,66.42
2019-02-09T08:23:16.632Z,66.65
2019-02-09T08:25:43.236Z,66.68
2019-02-09T08:28:13.137Z,66.18
2019-02-09T08:30:44.554Z,65.85
2019-02-09T08:33:11.132Z,65.76
2019-02-09T08:35:37.689Z,65.21
2019-02-09T08:38:05.404Z,64.53
2019-02-09T08:40:33.030Z,64.41
2019-02-09T08:42:59.594Z,64.24
2019-02-09T08:45:26.241Z,64.40
2019-02-09T08:47:52.833Z,64.53
2019-02-09T09:09:44.932Z,63.76
2019-02-09T09:12:11.559Z,63.03
2019-02-09T09:14:38.220Z,63.29
2019-02-09T09:17:04.755Z,63.70
2019-02-09T09:19:31.231Z,63.19
2019-02-09T09:21:57.678Z,62.69
2019-02-09T09:24:24.173Z,62.74
2019-02-09T09:26:50.676Z,62.78
2019-02-09T09:29:17.383Z,62.72
2019-02-09T09:31:44.880Z,63.06
2019-02-09T09:34:11.427Z,62.87
2019-02-09T09:36:37.883Z,61.88
2019-02-09T09:39:07.282Z,62.41
2019-02-09T09:41:33.826Z,62.75
2019-02-09T09:44:00.385Z,61.87
2019-02-09T09:46:27.004Z,61.86
2019-02-09T09:48:53.934Z,61.43
2019-02-09T09:51:38.969Z,61.50
2019-02-09T09:54:05.576Z,61.58
2019-02-09T09:56:32.158Z,61.52
2019-02-09T09:58:58.715Z,61.63
2019-02-09T10:01:25.449Z,61.71
2019-02-09T10:03:53.580Z,61.55
2019-02-09T10:06:20.137Z,61.63
2019-02-09T10:08:46.682Z,61.48
2019-02-09T10:11:13.275Z,61.21
2019-02-09T10:13:39.833Z,60.86
2019-02-09T10:16:06.476Z,60.89
2019-02-09T10:18:33.010Z,61.22
2019-02-09T10:20:59.554Z,60.85
2019-02-09T10:23:26.447Z,61.16
2019-02-09T10:25:53.011Z,60.82
2019-02-09T10:28:19.657Z,60.61
2019-02-09T10:30:46.234Z,60.54
2019-02-09T10:33:12.828Z,60.89
2019-02-09T10:35:39.448Z,60.46
2019-02-09T10:38:06.213Z,60.31
2019-02-09T10:40:36.408Z,60.28
2019-02-09T10:43:06.473Z,60.17
2019-02-09T10:45:33.043Z,60.34
2019-02-09T10:48:01.224Z,60.51
2019-02-09T10:50:32.584Z,59.85
2019-02-09T10:52:59.345Z,59.38
2019-02-09T10:55:25.962Z,59.58
2019-02-09T10:57:52.674Z,59.76
2019-02-09T11:00:25.102Z,59.54
2019-02-09T11:02:52.321Z,59.28
2019-02-09T11:05:20.226Z,59.67
2019-02-09T11:07:46.845Z,59.39
2019-02-09T11:10:18.288Z,59.20
2019-02-09T11:12:45.246Z,58.59
2019-02-09T11:15:17.054Z,58.60
2019-02-09T11:17:43.610Z,59.02
2019-02-09T11:20:15.022Z,57.97
2019-02-09T11:22:41.631Z,58.07
2019-02-09T11:25:12.391Z,58.49
2019-02-09T11:27:39.678Z,59.09
2019-02-09T11:30:12.383Z,58.37
2019-02-09T11:32:39.330Z,58.29
2019-02-09T11:35:09.899Z,58.21
2019-02-09T11:37:36.696Z,57.82
2019-02-09T11:40:08.417Z,57.99
2019-02-09T11:42:35.026Z,57.53
2019-02-09T11:45:09.270Z,57.02
2019-02-09T11:47:35.879Z,57.09
2019-02-09T11:50:07.332Z,56.96
2019-02-09T11:52:34.748Z,57.08
2019-02-09T11:55:01.349Z,56.81
2019-02-09T11:57:27.926Z,56.30
2019-02-09T11:59:54.533Z,56.79
2019-02-09T12:02:21.110Z,57.03
2019-02-09T12:04:47.705Z,56.37
2019-02-09T12:07:14.305Z,55.23
2019-02-09T12:09:40.923Z,56.17
2019-02-09T12:12:09.434Z,54.91
2019-02-09T12:14:36.018Z,54.88
2019-02-09T12:17:02.798Z,54.29
2019-02-09T12:19:29.471Z,54.04
2019-02-09T12:21:56.058Z,53.65
2019-02-09T12:24:22.821Z,53.29
2019-02-09T12:26:49.387Z,52.81
2019-02-09T12:29:16.021Z,52.01
2019-02-09T12:31:42.636Z,52.11
2019-02-09T12:34:09.270Z,51.81
2019-02-09T12:36:36.099Z,51.75
2019-02-09T12:39:07.306Z,51.51
2019-02-09T12:41:33.902Z,51.84
2019-02-09T12:44:00.497Z,51.89
2019-02-09T12:46:27.060Z,51.79
2019-02-09T12:48:53.688Z,51.20
2019-02-09T12:51:20.405Z,51.39
2019-02-09T12:53:46.997Z,51.42
2019-02-09T12:56:13.550Z,51.71
2019-02-09T12:58:40.131Z,52.10
2019-02-09T13:01:06.907Z,52.29
2019-02-09T13:03:33.503Z,51.48
2019-02-09T13:06:00.116Z,51.69
2019-02-09T13:08:26.695Z,51.67
2019-02-09T13:10:53.264Z,51.36
2019-02-09T13:13:19.854Z,51.73
2019-02-09T13:15:46.432Z,51.59
2019-02-09T13:18:13.044Z,51.83
2019-02-09T13:20:39.664Z,51.71
2019-02-09T13:23:07.940Z,51.67
2019-02-09T13:25:34.551Z,51.45
2019-02-09T13:28:01.122Z,51.06
2019-02-09T13:30:31.978Z,51.69
2019-02-09T13:32:58.672Z,51.55
2019-02-09T13:35:25.355Z,51.38
2019-02-09T13:37:51.963Z,51.73
2019-02-09T13:40:22.246Z,51.92
2019-02-09T13:42:48.842Z,51.55
2019-02-09T13:45:20.942Z,51.74
2019-02-09T13:47:47.540Z,51.68
2019-02-09T13:50:20.794Z,51.88
2019-02-09T13:52:52.405Z,52.28
2019-02-09T13:55:21.098Z,53.71
2019-02-09T13:57:47.737Z,54.49
2019-02-09T14:00:18.820Z,56.98
2019-02-09T14:02:45.455Z,58.69
2019-02-09T14:05:13.553Z,59.13
2019-02-09T14:07:40.161Z,61.69
2019-02-09T14:10:12.086Z,62.97
2019-02-09T14:12:38.744Z,63.76
2019-02-09T14:15:11.255Z,64.95
2019-02-09T14:17:37.941Z,65.69
2019-02-09T14:20:09.022Z,65.09
2019-02-09T14:22:36.989Z,65.82
2019-02-09T14:25:06.882Z,65.27
2019-02-09T14:27:33.472Z,66.03
2019-02-09T14:30:00.066Z,66.81
2019-02-09T14:32:26.639Z,67.37
2019-02-09T14:34:53.366Z,67.17
2019-02-09T14:37:19.951Z,65.96
2019-02-09T14:39:46.593Z,66.58
2019-02-09T14:42:13.348Z,67.07
2019-02-09T14:44:40.033Z,66.81
2019-02-09T14:47:06.745Z,66.70
2019-02-09T14:49:33.391Z,66.53
2019-02-09T14:52:00.022Z,66.59
2019-02-09T14:54:26.594Z,66.40
2019-02-09T14:56:53.187Z,65.90
2019-02-09T14:59:19.789Z,65.65
2019-02-09T15:01:46.364Z,64.71
2019-02-09T15:04:12.988Z,64.06
2019-02-09T15:06:39.548Z,64.08
2019-02-09T15:09:06.994Z,63.44
2019-02-09T15:11:33.658Z,63.49
2019-02-09T15:14:00.307Z,63.33
2019-02-09T15:16:28.805Z,62.81
2019-02-09T15:18:55.390Z,62.23
2019-02-09T15:21:21.974Z,62.14
2019-02-09T15:23:48.591Z,61.83
2019-02-09T15:26:15.128Z,61.88
2019-02-09T15:28:42.926Z,60.93
2019-02-09T15:31:09.781Z,61.18
2019-02-09T15:33:36.562Z,61.31
2019-02-09T15:36:03.156Z,61.24
2019-02-09T15:38:29.756Z,60.98
2019-02-09T15:40:57.940Z,61.14
2019-02-09T15:43:24.511Z,61.21
2019-02-09T15:45:51.165Z,60.94
2019-02-09T15:48:17.825Z,60.83
2019-02-09T15:50:44.518Z,60.84
2019-02-09T15:53:11.115Z,60.78
2019-02-09T15:55:37.897Z,60.95
2019-02-09T15:58:04.491Z,60.87
2019-02-09T16:00:31.170Z,60.70
2019-02-09T16:02:59.612Z,60.70
2019-02-09T16:05:26.374Z,60.10
2019-02-09T16:07:53.316Z,60.17
2019-02-09T16:10:21.573Z,60.21
2019-02-09T16:12:48.387Z,59.98
2019-02-09T16:15:20.731Z,60.27
2019-02-09T16:17:47.304Z,60.44
2019-02-09T16:20:17.442Z,60.49
2019-02-09T16:22:44.113Z,60.68
2019-02-09T16:25:10.692Z,60.81
2019-02-09T16:27:37.316Z,60.25
2019-02-09T16:30:09.654Z,59.86
2019-02-09T16:32:36.230Z,60.06
2019-02-09T16:35:08.286Z,59.89
2019-02-09T16:37:34.878Z,59.81
2019-02-09T16:40:02.238Z,59.16
2019-02-09T16:42:29.606Z,59.72
2019-02-09T16:44:57.179Z,59.79
2019-02-09T16:47:23.733Z,59.51
2019-02-09T16:50:46.668Z,59.82
2019-02-09T16:53:13.340Z,59.70
2019-02-09T16:55:39.989Z,59.35
2019-02-09T16:58:06.682Z,59.49
2019-02-09T17:00:36.316Z,59.75
2019-02-09T17:03:05.262Z,59.59
2019-02-09T17:05:32.861Z,59.65
2019-02-09T17:07:59.488Z,59.80
2019-02-09T17:10:26.162Z,59.47
2019-02-09T17:12:52.703Z,59.27
2019-02-09T17:15:22.637Z,59.83
2019-02-09T17:17:49.342Z,60.63
2019-02-09T17:20:16.024Z,61.05
2019-02-09T17:22:42.887Z,60.49
2019-02-09T17:25:14.408Z,60.79
2019-02-09T17:27:41.023Z,60.52
2019-02-09T17:30:13.347Z,60.56
2019-02-09T17:32:39.968Z,60.62
2019-02-09T17:35:09.792Z,60.77
2019-02-09T17:37:36.411Z,60.67
2019-02-09T17:40:08.776Z,60.10
2019-02-09T17:42:35.362Z,60.15
2019-02-09T17:45:06.599Z,60.26
2019-02-09T17:47:33.136Z,60.30
2019-02-09T17:49:59.764Z,60.98
2019-02-09T17:52:26.496Z,60.66
2019-02-09T17:54:53.337Z,60.78
2019-02-09T17:57:20.034Z,60.76
2019-02-09T17:59:46.621Z,61.10
2019-02-09T18:02:13.246Z,60.83
2019-02-09T18:04:39.887Z,61.40
2019-02-09T18:07:06.568Z,61.15
2019-02-09T18:09:33.279Z,60.96
2019-02-09T18:11:59.960Z,61.19
2019-02-09T18:14:26.502Z,61.86
2019-02-09T18:16:53.124Z,61.78
2019-02-09T18:19:19.691Z,62.41
2019-02-09T18:21:46.297Z,62.40
2019-02-09T18:24:12.875Z,61.60
2019-02-09T18:26:39.667Z,61.82
2019-02-09T18:29:06.284Z,61.78
2019-02-09T18:31:34.112Z,61.56
2019-02-09T18:34:00.743Z,61.75
2019-02-09T18:36:27.407Z,61.43
2019-02-09T18:38:53.960Z,61.59
2019-02-09T18:41:20.532Z,61.70
2019-02-09T18:43:47.167Z,62.34
2019-02-09T18:46:13.750Z,61.97
2019-02-09T18:48:40.508Z,61.58
2019-02-09T18:51:07.164Z,61.68
2019-02-09T18:53:33.754Z,62.15
2019-02-09T18:56:00.490Z,62.17
2019-02-09T18:58:27.114Z,62.54
2019-02-09T19:00:53.798Z,61.42
2019-02-09T19:03:23.306Z,61.05
2019-02-09T19:05:49.892Z,60.96
2019-02-09T19:08:16.490Z,61.29
2019-02-09T19:10:43.091Z,61.15
2019-02-09T19:13:09.723Z,61.29
2019-02-09T19:15:36.579Z,61.66
2019-02-09T19:18:05.804Z,61.28
2019-02-09T19:20:36.201Z,61.60
2019-02-09T19:23:03.088Z,60.91
2019-02-09T19:25:29.660Z,60.91
2019-02-09T19:27:56.222Z,60.83
2019-02-09T19:30:25.490Z,60.12
2019-02-09T19:32:52.431Z,60.69
2019-02-09T19:35:19.053Z,60.57
2019-02-09T19:37:45.668Z,60.68
2019-02-09T19:40:17.316Z,60.75
2019-02-09T19:42:45.727Z,60.93
2019-02-09T19:45:18.046Z,61.16
2019-02-09T19:47:44.976Z,61.21
2019-02-09T19:50:14.189Z,61.19
2019-02-09T19:52:41.551Z,61.42
2019-02-09T19:55:13.884Z,61.10
2019-02-09T19:57:40.609Z,60.90
2019-02-09T20:00:13.028Z,61.60
2019-02-09T20:02:39.870Z,61.55
2019-02-09T20:05:07.702Z,61.52
2019-02-09T20:07:34.456Z,61.93
2019-02-09T20:10:01.058Z,61.77
2019-02-09T20:12:27.699Z,61.90
2019-02-09T20:14:55.364Z,61.71
2019-02-09T20:17:21.932Z,61.67
2019-02-09T20:19:48.566Z,61.70
2019-02-09T20:22:15.197Z,62.06
2019-02-09T20:24:41.794Z,61.44
2019-02-09T20:27:08.473Z,61.05
2019-02-09T20:29:35.041Z,61.10
2019-02-09T20:32:01.664Z,60.64
2019-02-09T20:34:30.201Z,60.51
2019-02-09T20:36:57.347Z,60.35
2019-02-09T20:39:24.026Z,60.57
2019-02-09T20:41:50.636Z,61.05
2019-02-09T20:44:18.982Z,61.19
2019-02-09T20:46:46.765Z,60.66
2019-02-09T20:49:13.357Z,60.72
2019-02-09T20:51:40.024Z,60.82
2019-02-09T20:54:06.691Z,60.52
2019-02-09T20:56:33.401Z,60.70
2019-02-09T20:59:00.055Z,60.54
2019-02-09T21:01:26.693Z,60.57
2019-02-09T21:03:53.301Z,60.41
2019-02-09T21:06:19.969Z,60.60
2019-02-09T21:08:47.185Z,60.79
2019-02-09T21:11:13.756Z,60.82
2019-02-09T21:13:40.314Z,60.82
2019-02-09T21:16:07.093Z,60.82
2019-02-09T21:18:33.757Z,60.57
2019-02-09T21:21:00.343Z,60.72
2019-02-09T21:23:27.007Z,60.48
2019-02-09T21:25:54.233Z,60.90
2019-02-09T21:28:20.952Z,61.59
2019-02-09T21:30:47.606Z,61.34
2019-02-09T21:33:14.315Z,61.36
2019-02-09T21:35:43.982Z,61.59
2019-02-09T21:38:09.423Z,61.75
2019-02-09T21:40:36.069Z,61.90
2019-02-09T21:43:02.659Z,62.14
2019-02-09T21:45:29.450Z,62.20
2019-02-09T21:47:56.158Z,61.68
2019-02-09T21:50:28.572Z,61.76
2019-02-09T21:52:55.248Z,62.06
2019-02-09T21:55:21.944Z,62.15
2019-02-09T21:57:48.635Z,63.48
2019-02-09T22:00:19.124Z,63.47
2019-02-09T22:02:45.770Z,63.18
2019-02-09T22:05:12.427Z,63.49
2019-02-09T22:07:39.316Z,63.33
2019-02-09T22:10:11.759Z,63.49
2019-02-09T22:12:39.058Z,64.14
2019-02-09T22:15:09.518Z,63.95
2019-02-09T22:17:36.784Z,64.25
2019-02-09T22:21:02.877Z,64.45
2019-02-09T22:23:29.638Z,64.33
2019-02-09T22:25:56.228Z,64.94
2019-02-09T22:28:22.955Z,64.87
2019-02-09T22:30:49.928Z,65.08
2019-02-09T22:33:24.251Z,65.56
2019-02-09T22:35:45.238Z,65.63
2019-02-09T22:38:12.327Z,65.88
2019-02-09T22:40:40.128Z,65.46
2019-02-09T22:43:06.944Z,66.23
2019-02-09T22:45:33.723Z,65.76
2019-02-09T22:48:00.519Z,65.22
2019-02-09T22:50:32.250Z,65.63
2019-02-09T22:52:59.369Z,65.60
2019-02-09T22:55:26.036Z,65.59
2019-02-09T22:57:52.714Z,65.88
2019-02-09T23:00:27.708Z,66.59
2019-02-09T23:02:54.639Z,66.67
2019-02-09T23:05:26.935Z,66.31
2019-02-09T23:07:53.785Z,66.54
2019-02-09T23:10:20.376Z,66.70
2019-02-09T23:12:48.701Z,66.38
2019-02-09T23:15:15.800Z,66.58
2019-02-09T23:17:42.525Z,66.56
2019-02-09T23:20:09.504Z,66.42
2019-02-09T23:22:36.281Z,67.06
2019-02-09T23:25:06.250Z,66.70
2019-02-09T23:27:33.307Z,67.06
2019-02-09T23:30:00.284Z,67.63
2019-02-09T23:32:29.791Z,67.06
2019-02-09T23:34:56.500Z,67.48
2019-02-09T23:37:23.252Z,67.35
2019-02-09T23:40:46.575Z,67.49
2019-02-09T23:43:13.293Z,67.66
2019-02-09T23:45:40.175Z,67.96
2019-02-09T23:48:06.835Z,67.73
2019-02-09T23:50:33.555Z,67.70
2019-02-09T23:53:00.097Z,67.65
2019-02-09T23:55:26.650Z,67.74
2019-02-09T23:57:53.239Z,68.64
